sensor_id;sensor_type;location;lat;lon;timestamp;P1;durP1;ratioP1;P2;durP2;ratioP2
49800;SDS011;35698;50.232;30.540;2023-05-07T15:00:30;3.31;;;1.89;;
49800;SDS011;35698;50.232;30.540;2023-05-07T15:03:10;3.74;;;1.76;;
49800;SDS011;35698;50.232;30.540;2023-05-07T15:04:36;3.17;;;2.02;;
49800;SDS011;35698;50.232;30.540;2023-05-07T15:05:39;3.50;;;1.50;;
49800;SDS011;35698;50.232;30.540;2023-05-07T15:08:09;4.27;;;2.04;;
49800;SDS011;35698;50.232;30.540;2023-05-07T15:09:19;7.07;;;1.95;;
49800;SDS011;35698;50.232;30.540;2023-05-07T15:10:23;3.16;;;1.86;;
49800;SDS011;35698;50.232;30.540;2023-05-07T15:11:26;3.40;;;1.57;;
49800;SDS011;35698;50.232;30.540;2023-05-07T15:12:30;6.84;;;1.86;;
49800;SDS011;35698;50.232;30.540;2023-05-07T15:13:35;5.72;;;1.67;;
49800;SDS011;35698;50.232;30.540;2023-05-07T15:14:39;5.94;;;1.93;;
49800;SDS011;35698;50.232;30.540;2023-05-07T15:15:42;4.09;;;1.57;;
49800;SDS011;35698;50.232;30.540;2023-05-07T15:18:13;7.97;;;2.11;;
49800;SDS011;35698;50.232;30.540;2023-05-07T15:19:47;3.68;;;2.16;;
49800;SDS011;35698;50.232;30.540;2023-05-07T15:20:50;3.32;;;2.26;;
49800;SDS011;35698;50.232;30.540;2023-05-07T15:21:59;3.03;;;2.08;;
49800;SDS011;35698;50.232;30.540;2023-05-07T15:23:30;5.90;;;2.34;;
49800;SDS011;35698;50.232;30.540;2023-05-07T15:24:33;4.64;;;2.77;;
49800;SDS011;35698;50.232;30.540;2023-05-07T15:25:37;4.46;;;3.19;;
49800;SDS011;35698;50.232;30.540;2023-05-07T15:26:41;10.29;;;2.66;;
49800;SDS011;35698;50.232;30.540;2023-05-07T15:28:03;7.20;;;2.61;;
49800;SDS011;35698;50.232;30.540;2023-05-07T15:29:06;7.50;;;2.88;;
49800;SDS011;35698;50.232;30.540;2023-05-07T15:30:10;7.03;;;2.39;;
49800;SDS011;35698;50.232;30.540;2023-05-07T15:31:39;5.09;;;3.08;;
49800;SDS011;35698;50.232;30.540;2023-05-07T15:32:43;4.02;;;2.74;;
49800;SDS011;35698;50.232;30.540;2023-05-07T15:33:47;4.34;;;2.55;;
49800;SDS011;35698;50.232;30.540;2023-05-07T15:34:52;6.74;;;2.86;;
49800;SDS011;35698;50.232;30.540;2023-05-07T15:37:33;4.68;;;2.56;;
49800;SDS011;35698;50.232;30.540;2023-05-07T15:38:37;4.47;;;2.82;;
49800;SDS011;35698;50.232;30.540;2023-05-07T15:39:44;7.16;;;2.84;;
49800;SDS011;35698;50.232;30.540;2023-05-07T15:40:51;5.31;;;3.44;;
49800;SDS011;35698;50.232;30.540;2023-05-07T15:41:57;8.13;;;3.05;;
49800;SDS011;35698;50.232;30.540;2023-05-07T15:43:00;5.52;;;3.37;;
49800;SDS011;35698;50.232;30.540;2023-05-07T15:44:08;4.71;;;2.97;;
49800;SDS011;35698;50.232;30.540;2023-05-07T15:45:25;5.92;;;3.06;;
49800;SDS011;35698;50.232;30.540;2023-05-07T15:46:28;5.72;;;2.96;;
49800;SDS011;35698;50.232;30.540;2023-05-07T15:47:59;5.18;;;2.92;;
49800;SDS011;35698;50.232;30.540;2023-05-07T15:49:04;8.64;;;4.09;;
49800;SDS011;35698;50.232;30.540;2023-05-07T15:50:32;7.80;;;4.27;;
49800;SDS011;35698;50.232;30.540;2023-05-07T15:51:35;7.48;;;5.41;;
49800;SDS011;35698;50.232;30.540;2023-05-07T15:52:42;5.62;;;3.73;;
49800;SDS011;35698;50.232;30.540;2023-05-07T15:54:36;5.11;;;2.69;;
49800;SDS011;35698;50.232;30.540;2023-05-07T15:55:40;6.16;;;2.69;;
49800;SDS011;35698;50.232;30.540;2023-05-07T15:56:44;5.59;;;2.96;;
49800;SDS011;35698;50.232;30.540;2023-05-07T15:57:56;4.80;;;3.29;;
49800;SDS011;35698;50.232;30.540;2023-05-07T15:59:23;5.21;;;3.58;;
49800;SDS011;35698;50.232;30.540;2023-05-07T16:00:26;6.80;;;3.11;;
49800;SDS011;35698;50.232;30.540;2023-05-07T16:01:30;4.92;;;3.07;;
49800;SDS011;35698;50.232;30.540;2023-05-07T16:02:40;7.47;;;3.17;;
49800;SDS011;35698;50.232;30.540;2023-05-07T16:03:49;4.22;;;3.11;;
49800;SDS011;35698;50.232;30.540;2023-05-07T16:05:09;5.44;;;3.27;;
49800;SDS011;35698;50.232;30.540;2023-05-07T16:06:13;6.12;;;2.95;;
49800;SDS011;35698;50.232;30.540;2023-05-07T16:07:22;6.04;;;3.59;;
49800;SDS011;35698;50.232;30.540;2023-05-07T16:09:19;8.57;;;2.92;;
49800;SDS011;35698;50.232;30.540;2023-05-07T16:10:22;5.28;;;2.84;;
49800;SDS011;35698;50.232;30.540;2023-05-07T16:22:20;9.63;;;5.28;;
49800;SDS011;35698;50.232;30.540;2023-05-07T16:23:25;10.61;;;5.27;;
49800;SDS011;35698;50.232;30.540;2023-05-07T16:24:48;12.76;;;5.06;;
49800;SDS011;35698;50.232;30.540;2023-05-07T16:25:52;8.62;;;4.22;;
49800;SDS011;35698;50.232;30.540;2023-05-07T16:27:16;10.27;;;4.82;;
49800;SDS011;35698;50.232;30.540;2023-05-07T16:28:21;10.14;;;4.32;;
49800;SDS011;35698;50.232;30.540;2023-05-07T16:29:43;6.51;;;3.86;;
49800;SDS011;35698;50.232;30.540;2023-05-07T16:30:48;6.02;;;3.84;;
49800;SDS011;35698;50.232;30.540;2023-05-07T16:32:38;10.12;;;4.11;;
49800;SDS011;35698;50.232;30.540;2023-05-07T16:33:42;6.76;;;2.97;;
49800;SDS011;35698;50.232;30.540;2023-05-07T16:36:10;5.84;;;2.84;;
49800;SDS011;35698;50.232;30.540;2023-05-07T16:37:14;9.79;;;3.22;;
49800;SDS011;35698;50.232;30.540;2023-05-07T16:39:31;4.39;;;3.14;;
49800;SDS011;35698;50.232;30.540;2023-05-07T16:42:26;5.64;;;3.82;;
49800;SDS011;35698;50.232;30.540;2023-05-07T16:45:11;9.44;;;4.40;;
49800;SDS011;35698;50.232;30.540;2023-05-07T16:46:55;9.44;;;5.36;;
49800;SDS011;35698;50.232;30.540;2023-05-07T16:47:59;11.43;;;5.37;;
49800;SDS011;35698;50.232;30.540;2023-05-07T16:49:03;9.22;;;5.45;;
49800;SDS011;35698;50.232;30.540;2023-05-07T16:50:07;17.13;;;5.54;;
49800;SDS011;35698;50.232;30.540;2023-05-07T17:12:20;10.50;;;4.41;;
49800;SDS011;35698;50.232;30.540;2023-05-07T17:13:23;10.41;;;4.70;;
49800;SDS011;35698;50.232;30.540;2023-05-07T17:14:32;8.49;;;4.58;;
49800;SDS011;35698;50.232;30.540;2023-05-07T17:15:54;9.24;;;4.61;;
49800;SDS011;35698;50.232;30.540;2023-05-07T17:16:57;13.42;;;5.03;;
49800;SDS011;35698;50.232;30.540;2023-05-07T17:18:06;9.38;;;4.81;;
49800;SDS011;35698;50.232;30.540;2023-05-07T17:20:57;17.75;;;6.24;;
49800;SDS011;35698;50.232;30.540;2023-05-07T17:22:33;11.33;;;6.11;;
49800;SDS011;35698;50.232;30.540;2023-05-07T17:23:39;15.41;;;7.12;;
49800;SDS011;35698;50.232;30.540;2023-05-07T17:24:53;12.37;;;6.53;;
49800;SDS011;35698;50.232;30.540;2023-05-07T17:25:57;16.66;;;8.02;;
49800;SDS011;35698;50.232;30.540;2023-05-07T17:27:23;12.72;;;7.36;;
49800;SDS011;35698;50.232;30.540;2023-05-07T17:30:02;15.84;;;7.72;;
49800;SDS011;35698;50.232;30.540;2023-05-07T17:32:36;14.01;;;8.58;;
49800;SDS011;35698;50.232;30.540;2023-05-07T17:34:01;16.32;;;8.49;;
49800;SDS011;35698;50.232;30.540;2023-05-07T17:35:05;15.55;;;9.25;;
49800;SDS011;35698;50.232;30.540;2023-05-07T17:36:29;16.46;;;9.49;;
49800;SDS011;35698;50.232;30.540;2023-05-07T17:37:36;21.24;;;10.55;;
49800;SDS011;35698;50.232;30.540;2023-05-07T17:39:03;15.92;;;9.04;;
49800;SDS011;35698;50.232;30.540;2023-05-07T17:40:06;15.74;;;8.84;;
49800;SDS011;35698;50.232;30.540;2023-05-07T17:41:35;13.97;;;8.08;;
49800;SDS011;35698;50.232;30.540;2023-05-07T17:44:16;7.26;;;4.21;;
49800;SDS011;35698;50.232;30.540;2023-05-07T17:45:38;9.61;;;5.21;;
49800;SDS011;35698;50.232;30.540;2023-05-07T17:46:42;7.48;;;4.29;;
49800;SDS011;35698;50.232;30.540;2023-05-07T17:48:42;6.98;;;4.12;;
49800;SDS011;35698;50.232;30.540;2023-05-07T17:49:45;8.77;;;4.50;;
49800;SDS011;35698;50.232;30.540;2023-05-07T17:51:06;6.42;;;4.43;;
49800;SDS011;35698;50.232;30.540;2023-05-07T17:52:12;7.22;;;4.16;;
49800;SDS011;35698;50.232;30.540;2023-05-07T17:54:09;12.57;;;6.13;;
49800;SDS011;35698;50.232;30.540;2023-05-07T17:55:13;12.74;;;7.12;;
49800;SDS011;35698;50.232;30.540;2023-05-07T17:56:28;9.63;;;5.68;;
49800;SDS011;35698;50.232;30.540;2023-05-07T17:57:31;12.69;;;5.86;;
49800;SDS011;35698;50.232;30.540;2023-05-07T17:59:03;13.22;;;5.42;;
49800;SDS011;35698;50.232;30.540;2023-05-07T18:00:07;10.57;;;4.62;;
49800;SDS011;35698;50.232;30.540;2023-05-07T18:01:10;9.36;;;4.81;;
49800;SDS011;35698;50.232;30.540;2023-05-07T18:02:34;7.14;;;4.43;;
49800;SDS011;35698;50.232;30.540;2023-05-07T18:03:39;7.74;;;4.72;;
49800;SDS011;35698;50.232;30.540;2023-05-07T18:06:23;10.57;;;4.57;;
49800;SDS011;35698;50.232;30.540;2023-05-07T18:08:50;8.41;;;4.57;;
49800;SDS011;35698;50.232;30.540;2023-05-07T18:10:00;6.73;;;4.38;;
49800;SDS011;35698;50.232;30.540;2023-05-07T18:11:30;8.72;;;4.63;;
49800;SDS011;35698;50.232;30.540;2023-05-07T18:12:33;8.78;;;3.92;;
49800;SDS011;35698;50.232;30.540;2023-05-07T18:14:08;8.29;;;4.27;;
49800;SDS011;35698;50.232;30.540;2023-05-07T18:15:13;7.19;;;4.67;;
49800;SDS011;35698;50.232;30.540;2023-05-07T18:16:16;7.53;;;4.06;;
49800;SDS011;35698;50.232;30.540;2023-05-07T18:17:22;9.17;;;5.54;;
49800;SDS011;35698;50.232;30.540;2023-05-07T18:18:28;20.24;;;6.79;;
49800;SDS011;35698;50.232;30.540;2023-05-07T18:19:44;10.73;;;6.19;;
49800;SDS011;35698;50.232;30.540;2023-05-07T18:20:48;11.41;;;6.29;;
49800;SDS011;35698;50.232;30.540;2023-05-07T18:22:22;13.18;;;6.98;;
49800;SDS011;35698;50.232;30.540;2023-05-07T18:23:26;8.22;;;5.26;;
49800;SDS011;35698;50.232;30.540;2023-05-07T18:25:20;13.06;;;5.57;;
49800;SDS011;35698;50.232;30.540;2023-05-07T18:26:26;7.06;;;5.23;;
49800;SDS011;35698;50.232;30.540;2023-05-07T18:27:30;8.26;;;4.83;;
49800;SDS011;35698;50.232;30.540;2023-05-07T18:28:57;5.28;;;3.71;;
49800;SDS011;35698;50.232;30.540;2023-05-07T18:30:00;6.16;;;3.91;;
49800;SDS011;35698;50.232;30.540;2023-05-07T18:31:06;7.60;;;3.87;;
49800;SDS011;35698;50.232;30.540;2023-05-07T18:32:09;5.62;;;3.02;;
49800;SDS011;35698;50.232;30.540;2023-05-07T18:33:51;7.91;;;3.47;;
49800;SDS011;35698;50.232;30.540;2023-05-07T18:34:58;5.13;;;3.01;;
49800;SDS011;35698;50.232;30.540;2023-05-07T18:36:31;8.57;;;3.57;;
49800;SDS011;35698;50.232;30.540;2023-05-07T18:37:34;6.72;;;3.07;;
49800;SDS011;35698;50.232;30.540;2023-05-07T18:38:38;6.01;;;3.02;;
49800;SDS011;35698;50.232;30.540;2023-05-07T18:40:03;9.51;;;3.16;;
49800;SDS011;35698;50.232;30.540;2023-05-07T18:41:07;7.34;;;4.18;;
49800;SDS011;35698;50.232;30.540;2023-05-07T18:53:15;11.02;;;6.34;;
49800;SDS011;35698;50.232;30.540;2023-05-07T18:54:43;11.33;;;5.71;;
49800;SDS011;35698;50.232;30.540;2023-05-07T18:55:49;8.36;;;5.18;;
49800;SDS011;35698;50.232;30.540;2023-05-07T18:56:53;6.84;;;4.76;;
49800;SDS011;35698;50.232;30.540;2023-05-07T18:58:14;7.17;;;4.23;;
49800;SDS011;35698;50.232;30.540;2023-05-07T18:59:22;5.76;;;3.83;;
49800;SDS011;35698;50.232;30.540;2023-05-07T19:01:31;5.08;;;3.16;;
49800;SDS011;35698;50.232;30.540;2023-05-07T19:02:35;5.87;;;3.18;;
49800;SDS011;35698;50.232;30.540;2023-05-07T19:04:01;5.32;;;3.42;;
49800;SDS011;35698;50.232;30.540;2023-05-07T19:05:05;9.63;;;3.18;;
49800;SDS011;35698;50.232;30.540;2023-05-07T19:06:35;7.29;;;3.71;;
49800;SDS011;35698;50.232;30.540;2023-05-07T19:07:38;5.10;;;2.92;;
49800;SDS011;35698;50.232;30.540;2023-05-07T19:09:03;13.80;;;4.54;;
49800;SDS011;35698;50.232;30.540;2023-05-07T19:10:31;9.55;;;3.83;;
49800;SDS011;35698;50.232;30.540;2023-05-07T19:11:34;9.32;;;3.34;;
49800;SDS011;35698;50.232;30.540;2023-05-07T19:13:03;6.59;;;3.40;;
49800;SDS011;35698;50.232;30.540;2023-05-07T19:14:07;9.12;;;3.67;;
49800;SDS011;35698;50.232;30.540;2023-05-07T19:15:40;8.29;;;3.76;;
49800;SDS011;35698;50.232;30.540;2023-05-07T19:16:45;6.43;;;3.38;;
49800;SDS011;35698;50.232;30.540;2023-05-07T19:18:07;7.12;;;3.53;;
49800;SDS011;35698;50.232;30.540;2023-05-07T19:19:10;7.74;;;3.92;;
49800;SDS011;35698;50.232;30.540;2023-05-07T19:20:58;6.67;;;3.24;;
49800;SDS011;35698;50.232;30.540;2023-05-07T19:22:02;6.92;;;4.38;;
49800;SDS011;35698;50.232;30.540;2023-05-07T19:23:27;11.07;;;5.79;;
49800;SDS011;35698;50.232;30.540;2023-05-07T19:24:30;7.24;;;4.12;;
49800;SDS011;35698;50.232;30.540;2023-05-07T19:26:02;15.16;;;4.82;;
49800;SDS011;35698;50.232;30.540;2023-05-07T19:27:06;6.74;;;4.20;;
49800;SDS011;35698;50.232;30.540;2023-05-07T19:28:27;10.21;;;4.61;;
49800;SDS011;35698;50.232;30.540;2023-05-07T19:30:13;9.40;;;4.67;;
49800;SDS011;35698;50.232;30.540;2023-05-07T19:31:17;9.22;;;4.48;;
49800;SDS011;35698;50.232;30.540;2023-05-07T19:32:42;10.59;;;3.57;;
49800;SDS011;35698;50.232;30.540;2023-05-07T19:34:13;7.41;;;3.83;;
49800;SDS011;35698;50.232;30.540;2023-05-07T19:35:17;6.78;;;3.53;;
49800;SDS011;35698;50.232;30.540;2023-05-07T19:36:20;7.92;;;3.44;;
49800;SDS011;35698;50.232;30.540;2023-05-07T19:38:53;7.87;;;3.48;;
49800;SDS011;35698;50.232;30.540;2023-05-07T19:41:27;6.11;;;3.19;;
49800;SDS011;35698;50.232;30.540;2023-05-07T19:44:30;5.40;;;3.81;;
49800;SDS011;35698;50.232;30.540;2023-05-07T19:47:14;9.15;;;3.31;;
49800;SDS011;35698;50.232;30.540;2023-05-07T19:48:23;7.03;;;3.26;;
49800;SDS011;35698;50.232;30.540;2023-05-07T19:50:15;9.19;;;3.99;;
49800;SDS011;35698;50.232;30.540;2023-05-07T19:51:18;6.57;;;3.34;;
49800;SDS011;35698;50.232;30.540;2023-05-07T19:52:42;7.09;;;3.79;;
49800;SDS011;35698;50.232;30.540;2023-05-07T19:53:49;11.91;;;4.13;;
49800;SDS011;35698;50.232;30.540;2023-05-07T19:54:53;5.60;;;3.84;;
49800;SDS011;35698;50.232;30.540;2023-05-07T19:56:56;6.96;;;3.19;;
49800;SDS011;35698;50.232;30.540;2023-05-07T19:58:03;6.20;;;2.81;;
49800;SDS011;35698;50.232;30.540;2023-05-07T19:59:32;5.04;;;3.23;;
49800;SDS011;35698;50.232;30.540;2023-05-07T20:00:35;6.20;;;3.53;;
49800;SDS011;35698;50.232;30.540;2023-05-07T20:01:55;5.17;;;2.68;;
49800;SDS011;35698;50.232;30.540;2023-05-07T20:02:58;9.53;;;3.08;;
49800;SDS011;35698;50.232;30.540;2023-05-07T20:15:07;8.01;;;3.29;;
49800;SDS011;35698;50.232;30.540;2023-05-07T20:16:37;10.12;;;4.61;;
49800;SDS011;35698;50.232;30.540;2023-05-07T20:17:40;6.12;;;3.08;;
49800;SDS011;35698;50.232;30.540;2023-05-07T20:18:49;4.58;;;2.81;;
49800;SDS011;35698;50.232;30.540;2023-05-07T20:19:55;5.93;;;2.87;;
49800;SDS011;35698;50.232;30.540;2023-05-07T20:20:58;6.93;;;3.02;;
49800;SDS011;35698;50.232;30.540;2023-05-07T20:34:56;7.39;;;5.12;;
49800;SDS011;35698;50.232;30.540;2023-05-07T20:36:32;7.02;;;4.08;;
49800;SDS011;35698;50.232;30.540;2023-05-07T20:37:35;9.94;;;3.36;;
49800;SDS011;35698;50.232;30.540;2023-05-07T20:38:45;5.42;;;3.09;;
49800;SDS011;35698;50.232;30.540;2023-05-07T20:50:42;27.86;;;12.04;;
49800;SDS011;35698;50.232;30.540;2023-05-07T20:53:18;7.47;;;4.55;;
49800;SDS011;35698;50.232;30.540;2023-05-07T20:54:21;6.36;;;4.37;;
49800;SDS011;35698;50.232;30.540;2023-05-07T20:55:48;6.64;;;3.67;;
49800;SDS011;35698;50.232;30.540;2023-05-07T20:56:51;9.36;;;3.63;;
49800;SDS011;35698;50.232;30.540;2023-05-07T20:57:54;13.29;;;5.67;;
49800;SDS011;35698;50.232;30.540;2023-05-07T20:58:57;11.18;;;6.24;;
49800;SDS011;35698;50.232;30.540;2023-05-07T21:00:30;8.38;;;3.76;;
49800;SDS011;35698;50.232;30.540;2023-05-07T21:01:35;5.32;;;2.97;;
49800;SDS011;35698;50.232;30.540;2023-05-07T21:02:42;3.45;;;2.73;;
49800;SDS011;35698;50.232;30.540;2023-05-07T21:04:03;5.31;;;3.04;;
49800;SDS011;35698;50.232;30.540;2023-05-07T21:05:07;6.77;;;2.96;;
49800;SDS011;35698;50.232;30.540;2023-05-07T21:06:13;5.69;;;2.63;;
49800;SDS011;35698;50.232;30.540;2023-05-07T21:08:38;4.91;;;3.12;;
49800;SDS011;35698;50.232;30.540;2023-05-07T21:11:43;4.70;;;2.91;;
49800;SDS011;35698;50.232;30.540;2023-05-07T21:12:50;5.53;;;2.86;;
49800;SDS011;35698;50.232;30.540;2023-05-07T21:14:21;4.92;;;2.68;;
49800;SDS011;35698;50.232;30.540;2023-05-07T21:15:24;4.32;;;2.96;;
49800;SDS011;35698;50.232;30.540;2023-05-07T21:16:54;7.67;;;2.84;;
49800;SDS011;35698;50.232;30.540;2023-05-07T21:17:58;4.82;;;2.87;;
49800;SDS011;35698;50.232;30.540;2023-05-07T21:19:07;5.57;;;3.07;;
49800;SDS011;35698;50.232;30.540;2023-05-07T21:20:14;5.91;;;3.02;;
49800;SDS011;35698;50.232;30.540;2023-05-07T21:21:33;5.49;;;3.18;;
49800;SDS011;35698;50.232;30.540;2023-05-07T21:22:37;6.65;;;3.13;;
49800;SDS011;35698;50.232;30.540;2023-05-07T21:23:46;4.89;;;2.73;;
49800;SDS011;35698;50.232;30.540;2023-05-07T21:24:55;7.01;;;3.96;;
49800;SDS011;35698;50.232;30.540;2023-05-07T21:26:17;7.56;;;3.74;;
49800;SDS011;35698;50.232;30.540;2023-05-07T21:38:11;4.79;;;2.67;;
49800;SDS011;35698;50.232;30.540;2023-05-07T21:39:44;7.80;;;3.36;;
49800;SDS011;35698;50.232;30.540;2023-05-07T21:40:47;13.18;;;4.79;;
49800;SDS011;35698;50.232;30.540;2023-05-07T21:42:13;4.79;;;3.19;;
49800;SDS011;35698;50.232;30.540;2023-05-07T21:43:16;7.11;;;2.79;;
49800;SDS011;35698;50.232;30.540;2023-05-07T21:44:23;6.62;;;3.42;;
49800;SDS011;35698;50.232;30.540;2023-05-07T21:45:46;4.23;;;2.86;;
49800;SDS011;35698;50.232;30.540;2023-05-07T21:46:50;9.21;;;3.56;;
49800;SDS011;35698;50.232;30.540;2023-05-07T21:49:51;5.53;;;2.83;;
49800;SDS011;35698;50.232;30.540;2023-05-07T21:51:08;4.38;;;2.46;;
49800;SDS011;35698;50.232;30.540;2023-05-07T21:52:12;4.58;;;2.54;;
49800;SDS011;35698;50.232;30.540;2023-05-07T21:53:16;4.63;;;2.96;;
49800;SDS011;35698;50.232;30.540;2023-05-07T21:54:25;7.17;;;2.89;;
49800;SDS011;35698;50.232;30.540;2023-05-07T21:55:48;7.45;;;3.10;;
49800;SDS011;35698;50.232;30.540;2023-05-07T21:56:54;4.98;;;3.19;;
49800;SDS011;35698;50.232;30.540;2023-05-07T21:58:25;5.18;;;2.69;;
49800;SDS011;35698;50.232;30.540;2023-05-07T21:59:29;4.14;;;2.38;;
49800;SDS011;35698;50.232;30.540;2023-05-07T22:02:03;4.54;;;2.80;;
49800;SDS011;35698;50.232;30.540;2023-05-07T22:03:07;10.83;;;3.22;;
49800;SDS011;35698;50.232;30.540;2023-05-07T22:04:26;6.09;;;2.75;;
49800;SDS011;35698;50.232;30.540;2023-05-07T22:05:30;5.88;;;3.29;;
49800;SDS011;35698;50.232;30.540;2023-05-07T22:06:56;5.99;;;2.96;;
49800;SDS011;35698;50.232;30.540;2023-05-07T22:07:59;4.41;;;3.02;;
49800;SDS011;35698;50.232;30.540;2023-05-07T22:09:32;11.55;;;3.05;;
49800;SDS011;35698;50.232;30.540;2023-05-07T22:10:35;5.57;;;2.93;;
49800;SDS011;35698;50.232;30.540;2023-05-07T22:11:39;5.44;;;2.74;;
49800;SDS011;35698;50.232;30.540;2023-05-07T22:13:08;6.39;;;2.67;;
49800;SDS011;35698;50.232;30.540;2023-05-07T22:14:13;4.38;;;2.96;;
49800;SDS011;35698;50.232;30.540;2023-05-07T22:17:15;4.78;;;2.97;;
49800;SDS011;35698;50.232;30.540;2023-05-07T22:31:06;6.27;;;3.09;;
49800;SDS011;35698;50.232;30.540;2023-05-07T22:32:10;4.32;;;2.82;;
49800;SDS011;35698;50.232;30.540;2023-05-07T22:33:33;5.87;;;2.72;;
49800;SDS011;35698;50.232;30.540;2023-05-07T22:34:37;5.10;;;3.09;;
49800;SDS011;35698;50.232;30.540;2023-05-07T22:37:29;3.92;;;2.82;;
49800;SDS011;35698;50.232;30.540;2023-05-07T22:38:32;4.22;;;2.69;;
49800;SDS011;35698;50.232;30.540;2023-05-07T22:39:35;4.78;;;2.61;;
49800;SDS011;35698;50.232;30.540;2023-05-07T22:40:39;6.54;;;2.65;;
49800;SDS011;35698;50.232;30.540;2023-05-07T22:41:42;4.44;;;2.72;;
49800;SDS011;35698;50.232;30.540;2023-05-07T22:43:32;6.76;;;2.58;;
49800;SDS011;35698;50.232;30.540;2023-05-07T22:44:36;4.01;;;2.61;;
49800;SDS011;35698;50.232;30.540;2023-05-07T22:46:13;3.74;;;2.70;;
49800;SDS011;35698;50.232;30.540;2023-05-07T22:47:16;5.19;;;2.95;;
49800;SDS011;35698;50.232;30.540;2023-05-07T22:48:43;7.21;;;2.81;;
49800;SDS011;35698;50.232;30.540;2023-05-07T22:49:48;5.36;;;2.53;;
49800;SDS011;35698;50.232;30.540;2023-05-07T22:51:19;4.14;;;2.88;;
49800;SDS011;35698;50.232;30.540;2023-05-07T22:52:22;4.89;;;2.81;;
49800;SDS011;35698;50.232;30.540;2023-05-07T22:53:50;6.63;;;2.48;;
49800;SDS011;35698;50.232;30.540;2023-05-07T22:54:56;4.84;;;2.55;;
49800;SDS011;35698;50.232;30.540;2023-05-07T22:56:05;7.82;;;3.33;;
49800;SDS011;35698;50.232;30.540;2023-05-07T22:57:17;5.15;;;3.09;;
49800;SDS011;35698;50.232;30.540;2023-05-07T22:58:37;4.88;;;2.76;;
49800;SDS011;35698;50.232;30.540;2023-05-07T22:59:40;5.36;;;2.89;;
49800;SDS011;35698;50.232;30.540;2023-05-07T23:00:50;3.80;;;2.36;;
49800;SDS011;35698;50.232;30.540;2023-05-07T23:02:00;4.33;;;2.54;;
49800;SDS011;35698;50.232;30.540;2023-05-07T23:03:07;4.69;;;3.16;;
49800;SDS011;35698;50.232;30.540;2023-05-07T23:04:58;4.11;;;2.73;;
49800;SDS011;35698;50.232;30.540;2023-05-07T23:06:02;3.68;;;2.69;;
49800;SDS011;35698;50.232;30.540;2023-05-07T23:07:25;3.53;;;2.48;;
49800;SDS011;35698;50.232;30.540;2023-05-07T23:08:28;4.26;;;2.51;;
49800;SDS011;35698;50.232;30.540;2023-05-07T23:21:01;5.44;;;2.41;;
49800;SDS011;35698;50.232;30.540;2023-05-07T23:22:13;5.27;;;2.64;;
49800;SDS011;35698;50.232;30.540;2023-05-07T23:24:50;3.65;;;2.73;;
49800;SDS011;35698;50.232;30.540;2023-05-07T23:26:35;3.82;;;2.70;;
49800;SDS011;35698;50.232;30.540;2023-05-07T23:27:40;3.49;;;2.79;;
49800;SDS011;35698;50.232;30.540;2023-05-07T23:28:49;5.14;;;2.48;;
49800;SDS011;35698;50.232;30.540;2023-05-07T23:31:47;6.07;;;4.49;;
49800;SDS011;35698;50.232;30.540;2023-05-07T23:32:51;5.45;;;3.95;;
49800;SDS011;35698;50.232;30.540;2023-05-07T23:46:53;4.61;;;2.71;;
49800;SDS011;35698;50.232;30.540;2023-05-07T23:47:57;6.50;;;2.53;;
49800;SDS011;35698;50.232;30.540;2023-05-07T23:49:04;5.49;;;2.28;;
49800;SDS011;35698;50.232;30.540;2023-05-07T23:50:08;5.51;;;2.52;;
49800;SDS011;35698;50.232;30.540;2023-05-07T23:51:31;4.28;;;2.74;;
49800;SDS011;35698;50.232;30.540;2023-05-07T23:52:35;3.39;;;2.44;;
49800;SDS011;35698;50.232;30.540;2023-05-07T23:53:38;10.43;;;3.33;;
49800;SDS011;35698;50.232;30.540;2023-05-07T23:54:44;4.36;;;2.38;;
49800;SDS011;35698;50.232;30.540;2023-05-07T23:55:58;4.21;;;2.71;;
49800;SDS011;35698;50.232;30.540;2023-05-07T23:57:01;7.62;;;2.63;;
